sensor_id;sensor_type;location;lat;lon;timestamp;pressure;altitude;pressure_sealevel;temperature;humidity
29461;BME280;16428;47.836;35.106;2024-03-02T00:00:22;101893.03;;;3.19;100.00
29461;BME280;16428;47.836;35.106;2024-03-02T00:02:50;101896.88;;;3.01;100.00
29461;BME280;16428;47.836;35.106;2024-03-02T00:05:18;101894.78;;;3.06;100.00
29461;BME280;16428;47.836;35.106;2024-03-02T00:07:53;101889.03;;;2.99;100.00
29461;BME280;16428;47.836;35.106;2024-03-02T00:10:25;101885.28;;;3.16;100.00
29461;BME280;16428;47.836;35.106;2024-03-02T00:12:56;101879.34;;;3.25;100.00
29461;BME280;16428;47.836;35.106;2024-03-02T00:17:57;101870.97;;;2.77;100.00
29461;BME280;16428;47.836;35.106;2024-03-02T00:20:26;101868.13;;;2.80;100.00
29461;BME280;16428;47.836;35.106;2024-03-02T00:23:04;101866.97;;;2.85;100.00
29461;BME280;16428;47.836;35.106;2024-03-02T00:25:37;101870.06;;;2.91;100.00
29461;BME280;16428;47.836;35.106;2024-03-02T00:28:05;101872.44;;;2.96;100.00
29461;BME280;16428;47.836;35.106;2024-03-02T00:30:49;101854.63;;;2.98;100.00
29461;BME280;16428;47.836;35.106;2024-03-02T00:33:19;101853.09;;;2.94;100.00
29461;BME280;16428;47.836;35.106;2024-03-02T00:35:47;101857.78;;;2.90;100.00
29461;BME280;16428;47.836;35.106;2024-03-02T00:38:15;101846.31;;;2.90;100.00
29461;BME280;16428;47.836;35.106;2024-03-02T00:40:44;101841.63;;;2.93;100.00
29461;BME280;16428;47.836;35.106;2024-03-02T00:45:50;101834.00;;;2.89;100.00
29461;BME280;16428;47.836;35.106;2024-03-02T00:48:17;101834.38;;;2.82;100.00
29461;BME280;16428;47.836;35.106;2024-03-02T00:50:44;101832.34;;;2.73;100.00
29461;BME280;16428;47.836;35.106;2024-03-02T00:53:13;101826.81;;;2.76;100.00
29461;BME280;16428;47.836;35.106;2024-03-02T00:55:41;101826.09;;;2.74;100.00
29461;BME280;16428;47.836;35.106;2024-03-02T00:58:11;101826.94;;;2.75;100.00
29461;BME280;16428;47.836;35.106;2024-03-02T01:00:38;101830.22;;;2.78;100.00
29461;BME280;16428;47.836;35.106;2024-03-02T01:03:05;101828.41;;;2.79;100.00
29461;BME280;16428;47.836;35.106;2024-03-02T01:05:32;101816.75;;;2.81;100.00
29461;BME280;16428;47.836;35.106;2024-03-02T01:07:59;101810.78;;;2.78;100.00
29461;BME280;16428;47.836;35.106;2024-03-02T01:10:26;101816.38;;;2.88;100.00
29461;BME280;16428;47.836;35.106;2024-03-02T01:12:54;101818.41;;;2.70;100.00
29461;BME280;16428;47.836;35.106;2024-03-02T01:15:21;101815.84;;;2.68;100.00
29461;BME280;16428;47.836;35.106;2024-03-02T01:17:48;101832.56;;;2.56;100.00
29461;BME280;16428;47.836;35.106;2024-03-02T01:20:19;101827.06;;;2.59;100.00
29461;BME280;16428;47.836;35.106;2024-03-02T01:22:46;101835.97;;;2.58;100.00
29461;BME280;16428;47.836;35.106;2024-03-02T01:25:14;101821.19;;;2.54;100.00
29461;BME280;16428;47.836;35.106;2024-03-02T01:27:41;101818.94;;;2.48;100.00
29461;BME280;16428;47.836;35.106;2024-03-02T01:30:08;101815.13;;;2.52;100.00
29461;BME280;16428;47.836;35.106;2024-03-02T01:32:37;101814.97;;;2.41;100.00
29461;BME280;16428;47.836;35.106;2024-03-02T01:35:05;101816.88;;;2.39;100.00
29461;BME280;16428;47.836;35.106;2024-03-02T01:37:33;101801.91;;;2.38;100.00
29461;BME280;16428;47.836;35.106;2024-03-02T01:40:01;101812.13;;;2.30;100.00
29461;BME280;16428;47.836;35.106;2024-03-02T01:42:29;101813.84;;;2.31;100.00
29461;BME280;16428;47.836;35.106;2024-03-02T01:44:57;101809.88;;;2.24;100.00
29461;BME280;16428;47.836;35.106;2024-03-02T01:47:24;101813.41;;;2.24;100.00
29461;BME280;16428;47.836;35.106;2024-03-02T01:49:51;101815.56;;;2.18;100.00
29461;BME280;16428;47.836;35.106;2024-03-02T01:52:18;101814.72;;;2.17;100.00
29461;BME280;16428;47.836;35.106;2024-03-02T01:54:45;101817.78;;;1.97;100.00
29461;BME280;16428;47.836;35.106;2024-03-02T01:57:12;101812.16;;;2.16;100.00
29461;BME280;16428;47.836;35.106;2024-03-02T01:59:39;101813.22;;;2.13;100.00
29461;BME280;16428;47.836;35.106;2024-03-02T02:02:07;101817.00;;;2.09;100.00
29461;BME280;16428;47.836;35.106;2024-03-02T02:04:34;101811.97;;;2.04;100.00
29461;BME280;16428;47.836;35.106;2024-03-02T02:07:01;101813.50;;;1.94;100.00
29461;BME280;16428;47.836;35.106;2024-03-02T02:09:28;101817.97;;;1.94;100.00
29461;BME280;16428;47.836;35.106;2024-03-02T02:11:55;101813.88;;;1.88;100.00
29461;BME280;16428;47.836;35.106;2024-03-02T02:14:22;101816.91;;;1.96;100.00
29461;BME280;16428;47.836;35.106;2024-03-02T02:16:49;101810.28;;;2.03;100.00
29461;BME280;16428;47.836;35.106;2024-03-02T02:19:17;101811.41;;;1.99;100.00
29461;BME280;16428;47.836;35.106;2024-03-02T02:21:43;101812.00;;;1.90;100.00
29461;BME280;16428;47.836;35.106;2024-03-02T02:24:11;101810.69;;;1.83;100.00
29461;BME280;16428;47.836;35.106;2024-03-02T02:26:40;101816.16;;;1.80;100.00
29461;BME280;16428;47.836;35.106;2024-03-02T02:29:07;101812.66;;;1.94;100.00
29461;BME280;16428;47.836;35.106;2024-03-02T02:31:41;101810.28;;;1.89;100.00
29461;BME280;16428;47.836;35.106;2024-03-02T02:34:08;101804.22;;;1.87;100.00
29461;BME280;16428;47.836;35.106;2024-03-02T02:36:39;101812.94;;;1.89;100.00
29461;BME280;16428;47.836;35.106;2024-03-02T02:39:10;101804.97;;;1.89;100.00
29461;BME280;16428;47.836;35.106;2024-03-02T02:41:38;101798.72;;;2.04;100.00
29461;BME280;16428;47.836;35.106;2024-03-02T02:44:05;101798.16;;;1.99;100.00
29461;BME280;16428;47.836;35.106;2024-03-02T02:46:32;101801.66;;;2.00;100.00
29461;BME280;16428;47.836;35.106;2024-03-02T02:48:59;101793.25;;;2.07;100.00
29461;BME280;16428;47.836;35.106;2024-03-02T02:51:27;101797.22;;;1.86;100.00
29461;BME280;16428;47.836;35.106;2024-03-02T02:53:54;101794.09;;;1.94;100.00
29461;BME280;16428;47.836;35.106;2024-03-02T02:56:20;101792.97;;;1.98;100.00
29461;BME280;16428;47.836;35.106;2024-03-02T02:58:48;101799.66;;;2.18;100.00
29461;BME280;16428;47.836;35.106;2024-03-02T03:01:16;101799.38;;;2.22;100.00
29461;BME280;16428;47.836;35.106;2024-03-02T03:03:46;101791.53;;;2.06;100.00
29461;BME280;16428;47.836;35.106;2024-03-02T03:06:13;101792.47;;;2.20;100.00
29461;BME280;16428;47.836;35.106;2024-03-02T03:08:40;101793.69;;;2.14;100.00
29461;BME280;16428;47.836;35.106;2024-03-02T03:11:07;101783.66;;;2.19;100.00
29461;BME280;16428;47.836;35.106;2024-03-02T03:13:34;101789.91;;;2.18;100.00
29461;BME280;16428;47.836;35.106;2024-03-02T03:16:01;101790.75;;;2.19;100.00
29461;BME280;16428;47.836;35.106;2024-03-02T03:18:28;101782.53;;;2.23;100.00
29461;BME280;16428;47.836;35.106;2024-03-02T03:20:55;101794.06;;;2.36;100.00
29461;BME280;16428;47.836;35.106;2024-03-02T03:23:22;101784.69;;;2.31;100.00
29461;BME280;16428;47.836;35.106;2024-03-02T03:25:49;101775.72;;;2.19;100.00
29461;BME280;16428;47.836;35.106;2024-03-02T03:28:16;101772.03;;;2.22;100.00
29461;BME280;16428;47.836;35.106;2024-03-02T03:30:44;101760.75;;;2.18;100.00
29461;BME280;16428;47.836;35.106;2024-03-02T03:33:11;101765.22;;;2.03;100.00
29461;BME280;16428;47.836;35.106;2024-03-02T03:35:38;101755.94;;;2.10;100.00
29461;BME280;16428;47.836;35.106;2024-03-02T03:38:05;101759.56;;;1.95;100.00
29461;BME280;16428;47.836;35.106;2024-03-02T03:40:32;101758.22;;;2.02;100.00
29461;BME280;16428;47.836;35.106;2024-03-02T03:42:59;101763.16;;;2.08;100.00
29461;BME280;16428;47.836;35.106;2024-03-02T03:45:26;101755.03;;;1.97;100.00
29461;BME280;16428;47.836;35.106;2024-03-02T03:47:54;101747.09;;;1.83;100.00
29461;BME280;16428;47.836;35.106;2024-03-02T03:50:21;101757.09;;;1.92;100.00
29461;BME280;16428;47.836;35.106;2024-03-02T03:52:48;101759.84;;;1.91;100.00
29461;BME280;16428;47.836;35.106;2024-03-02T03:55:15;101747.72;;;1.87;100.00
29461;BME280;16428;47.836;35.106;2024-03-02T03:57:42;101750.47;;;1.85;100.00
29461;BME280;16428;47.836;35.106;2024-03-02T04:00:09;101744.53;;;1.82;100.00
29461;BME280;16428;47.836;35.106;2024-03-02T04:02:37;101744.72;;;1.79;100.00
29461;BME280;16428;47.836;35.106;2024-03-02T04:05:05;101754.72;;;1.88;100.00
29461;BME280;16428;47.836;35.106;2024-03-02T04:07:36;101752.00;;;1.89;100.00
29461;BME280;16428;47.836;35.106;2024-03-02T04:10:08;101754.47;;;1.92;100.00
29461;BME280;16428;47.836;35.106;2024-03-02T04:12:36;101755.69;;;1.72;100.00
29461;BME280;16428;47.836;35.106;2024-03-02T04:15:06;101754.63;;;1.89;100.00
29461;BME280;16428;47.836;35.106;2024-03-02T04:17:34;101760.50;;;1.94;100.00
29461;BME280;16428;47.836;35.106;2024-03-02T04:20:22;101753.72;;;1.62;100.00
29461;BME280;16428;47.836;35.106;2024-03-02T04:22:49;101760.13;;;1.72;100.00
29461;BME280;16428;47.836;35.106;2024-03-02T04:25:16;101755.88;;;1.69;100.00
29461;BME280;16428;47.836;35.106;2024-03-02T04:27:43;101753.97;;;1.86;100.00
29461;BME280;16428;47.836;35.106;2024-03-02T04:30:10;101753.72;;;1.76;100.00
29461;BME280;16428;47.836;35.106;2024-03-02T04:32:37;101754.06;;;1.56;100.00
29461;BME280;16428;47.836;35.106;2024-03-02T04:35:06;101755.50;;;1.61;100.00
29461;BME280;16428;47.836;35.106;2024-03-02T04:37:35;101744.81;;;1.63;100.00
29461;BME280;16428;47.836;35.106;2024-03-02T04:40:02;101761.91;;;1.57;100.00
29461;BME280;16428;47.836;35.106;2024-03-02T04:42:29;101745.28;;;1.69;100.00
29461;BME280;16428;47.836;35.106;2024-03-02T04:44:56;101747.66;;;1.74;100.00
29461;BME280;16428;47.836;35.106;2024-03-02T04:47:23;101738.50;;;1.65;100.00
29461;BME280;16428;47.836;35.106;2024-03-02T04:49:50;101740.09;;;1.82;100.00
29461;BME280;16428;47.836;35.106;2024-03-02T04:52:17;101734.78;;;1.82;100.00
29461;BME280;16428;47.836;35.106;2024-03-02T04:54:44;101733.09;;;1.81;100.00
29461;BME280;16428;47.836;35.106;2024-03-02T04:57:30;101740.25;;;1.93;100.00
29461;BME280;16428;47.836;35.106;2024-03-02T04:59:56;101734.00;;;1.94;100.00
29461;BME280;16428;47.836;35.106;2024-03-02T05:02:23;101732.56;;;2.03;100.00
29461;BME280;16428;47.836;35.106;2024-03-02T05:04:50;101734.97;;;1.79;100.00
29461;BME280;16428;47.836;35.106;2024-03-02T05:07:18;101723.22;;;1.97;100.00
29461;BME280;16428;47.836;35.106;2024-03-02T05:09:45;101739.31;;;1.94;100.00
29461;BME280;16428;47.836;35.106;2024-03-02T05:12:12;101740.25;;;1.93;100.00
29461;BME280;16428;47.836;35.106;2024-03-02T05:14:57;101730.56;;;2.21;100.00
29461;BME280;16428;47.836;35.106;2024-03-02T05:17:24;101734.56;;;2.14;100.00
29461;BME280;16428;47.836;35.106;2024-03-02T05:19:51;101737.94;;;2.16;100.00
29461;BME280;16428;47.836;35.106;2024-03-02T05:22:18;101732.63;;;2.16;100.00
29461;BME280;16428;47.836;35.106;2024-03-02T05:24:45;101736.59;;;2.23;100.00
29461;BME280;16428;47.836;35.106;2024-03-02T05:27:12;101727.06;;;2.20;100.00
29461;BME280;16428;47.836;35.106;2024-03-02T05:29:39;101720.50;;;2.26;100.00
29461;BME280;16428;47.836;35.106;2024-03-02T05:32:06;101719.16;;;2.33;100.00
29461;BME280;16428;47.836;35.106;2024-03-02T05:34:33;101716.88;;;2.41;100.00
29461;BME280;16428;47.836;35.106;2024-03-02T05:37:02;101723.25;;;2.51;100.00
29461;BME280;16428;47.836;35.106;2024-03-02T05:39:29;101710.38;;;2.45;100.00
29461;BME280;16428;47.836;35.106;2024-03-02T05:41:56;101719.00;;;2.48;100.00
29461;BME280;16428;47.836;35.106;2024-03-02T05:44:23;101718.25;;;2.73;100.00
29461;BME280;16428;47.836;35.106;2024-03-02T05:46:50;101714.94;;;2.70;100.00
29461;BME280;16428;47.836;35.106;2024-03-02T05:49:17;101710.41;;;2.85;100.00
29461;BME280;16428;47.836;35.106;2024-03-02T05:51:44;101707.41;;;2.76;100.00
29461;BME280;16428;47.836;35.106;2024-03-02T05:54:11;101687.97;;;2.76;100.00
29461;BME280;16428;47.836;35.106;2024-03-02T05:56:38;101695.75;;;2.79;100.00
29461;BME280;16428;47.836;35.106;2024-03-02T05:59:05;101700.56;;;2.87;100.00
29461;BME280;16428;47.836;35.106;2024-03-02T06:01:43;101697.47;;;2.93;100.00
29461;BME280;16428;47.836;35.106;2024-03-02T06:04:11;101693.44;;;2.87;100.00
29461;BME280;16428;47.836;35.106;2024-03-02T06:06:38;101696.97;;;3.13;100.00
29461;BME280;16428;47.836;35.106;2024-03-02T06:09:06;101694.00;;;3.05;100.00
29461;BME280;16428;47.836;35.106;2024-03-02T06:11:36;101695.81;;;3.17;100.00
29461;BME280;16428;47.836;35.106;2024-03-02T06:14:04;101682.19;;;3.22;100.00
29461;BME280;16428;47.836;35.106;2024-03-02T06:16:32;101680.63;;;3.44;100.00
29461;BME280;16428;47.836;35.106;2024-03-02T06:19:00;101688.59;;;3.19;100.00
29461;BME280;16428;47.836;35.106;2024-03-02T06:21:28;101686.03;;;3.30;100.00
29461;BME280;16428;47.836;35.106;2024-03-02T06:23:55;101688.78;;;3.54;100.00
29461;BME280;16428;47.836;35.106;2024-03-02T06:26:23;101687.91;;;3.53;100.00
29461;BME280;16428;47.836;35.106;2024-03-02T06:28:52;101683.91;;;3.48;100.00
29461;BME280;16428;47.836;35.106;2024-03-02T06:31:19;101690.25;;;3.58;100.00
29461;BME280;16428;47.836;35.106;2024-03-02T06:33:46;101683.69;;;3.38;100.00
29461;BME280;16428;47.836;35.106;2024-03-02T06:36:13;101682.63;;;3.66;100.00
29461;BME280;16428;47.836;35.106;2024-03-02T06:38:42;101688.16;;;3.63;100.00
29461;BME280;16428;47.836;35.106;2024-03-02T06:41:09;101676.44;;;3.78;100.00
29461;BME280;16428;47.836;35.106;2024-03-02T06:43:36;101677.16;;;3.80;100.00
29461;BME280;16428;47.836;35.106;2024-03-02T06:46:05;101675.22;;;3.95;100.00
29461;BME280;16428;47.836;35.106;2024-03-02T06:48:33;101669.41;;;4.38;100.00
29461;BME280;16428;47.836;35.106;2024-03-02T06:51:00;101675.16;;;4.32;100.00
29461;BME280;16428;47.836;35.106;2024-03-02T06:53:28;101673.81;;;4.26;100.00
29461;BME280;16428;47.836;35.106;2024-03-02T06:55:55;101684.66;;;4.47;100.00
29461;BME280;16428;47.836;35.106;2024-03-02T06:58:22;101680.59;;;4.54;99.89
29461;BME280;16428;47.836;35.106;2024-03-02T07:00:49;101675.66;;;4.60;98.49
29461;BME280;16428;47.836;35.106;2024-03-02T07:03:16;101675.41;;;4.87;97.34
29461;BME280;16428;47.836;35.106;2024-03-02T07:05:44;101676.16;;;5.01;97.32
29461;BME280;16428;47.836;35.106;2024-03-02T07:08:11;101670.56;;;4.92;98.66
29461;BME280;16428;47.836;35.106;2024-03-02T07:10:38;101670.28;;;5.19;95.24
29461;BME280;16428;47.836;35.106;2024-03-02T07:13:05;101669.78;;;5.25;94.64
29461;BME280;16428;47.836;35.106;2024-03-02T07:15:32;101676.22;;;5.34;93.62
29461;BME280;16428;47.836;35.106;2024-03-02T07:18:17;101679.97;;;5.43;93.70
29461;BME280;16428;47.836;35.106;2024-03-02T07:20:44;101670.53;;;5.50;93.16
29461;BME280;16428;47.836;35.106;2024-03-02T07:23:12;101671.13;;;5.53;91.96
29461;BME280;16428;47.836;35.106;2024-03-02T07:25:39;101675.44;;;5.21;94.78
29461;BME280;16428;47.836;35.106;2024-03-02T07:28:09;101674.50;;;5.55;92.61
29461;BME280;16428;47.836;35.106;2024-03-02T07:30:36;101675.38;;;5.56;91.93
29461;BME280;16428;47.836;35.106;2024-03-02T07:33:05;101669.66;;;5.27;93.31
29461;BME280;16428;47.836;35.106;2024-03-02T07:35:33;101667.00;;;5.38;93.38
29461;BME280;16428;47.836;35.106;2024-03-02T07:38:00;101662.63;;;5.26;94.24
29461;BME280;16428;47.836;35.106;2024-03-02T07:40:27;101662.66;;;5.48;92.99
29461;BME280;16428;47.836;35.106;2024-03-02T07:42:54;101655.25;;;5.41;92.62
29461;BME280;16428;47.836;35.106;2024-03-02T07:45:22;101659.50;;;5.43;92.40
29461;BME280;16428;47.836;35.106;2024-03-02T07:47:49;101653.69;;;5.16;95.21
29461;BME280;16428;47.836;35.106;2024-03-02T07:50:17;101657.31;;;5.26;94.31
29461;BME280;16428;47.836;35.106;2024-03-02T07:52:44;101657.34;;;5.48;93.27
29461;BME280;16428;47.836;35.106;2024-03-02T07:55:11;101647.84;;;5.66;91.81
29461;BME280;16428;47.836;35.106;2024-03-02T07:57:38;101645.69;;;5.38;93.62
29461;BME280;16428;47.836;35.106;2024-03-02T08:00:06;101648.00;;;5.54;93.05
29461;BME280;16428;47.836;35.106;2024-03-02T08:02:35;101642.28;;;5.58;93.63
29461;BME280;16428;47.836;35.106;2024-03-02T08:05:02;101636.34;;;5.55;93.00
29461;BME280;16428;47.836;35.106;2024-03-02T08:07:29;101625.69;;;5.66;93.78
29461;BME280;16428;47.836;35.106;2024-03-02T08:09:56;101631.59;;;5.81;92.09
29461;BME280;16428;47.836;35.106;2024-03-02T08:12:23;101619.22;;;6.02;91.11
29461;BME280;16428;47.836;35.106;2024-03-02T08:14:50;101624.44;;;6.04;90.17
29461;BME280;16428;47.836;35.106;2024-03-02T08:17:17;101615.09;;;5.98;90.87
29461;BME280;16428;47.836;35.106;2024-03-02T08:19:45;101616.78;;;6.10;90.29
29461;BME280;16428;47.836;35.106;2024-03-02T08:22:12;101615.09;;;6.09;90.02
29461;BME280;16428;47.836;35.106;2024-03-02T08:24:39;101619.47;;;6.10;89.59
29461;BME280;16428;47.836;35.106;2024-03-02T08:27:07;101614.09;;;6.21;89.58
29461;BME280;16428;47.836;35.106;2024-03-02T08:29:36;101619.59;;;6.41;88.31
29461;BME280;16428;47.836;35.106;2024-03-02T08:32:03;101611.09;;;6.04;89.63
29461;BME280;16428;47.836;35.106;2024-03-02T08:34:30;101614.09;;;6.42;87.80
29461;BME280;16428;47.836;35.106;2024-03-02T08:36:58;101619.22;;;6.02;90.11
29461;BME280;16428;47.836;35.106;2024-03-02T08:39:25;101622.94;;;6.43;89.49
29461;BME280;16428;47.836;35.106;2024-03-02T08:41:52;101622.06;;;6.74;87.36
29461;BME280;16428;47.836;35.106;2024-03-02T08:44:20;101628.91;;;6.88;86.18
29461;BME280;16428;47.836;35.106;2024-03-02T08:46:47;101624.06;;;6.72;86.15
29461;BME280;16428;47.836;35.106;2024-03-02T08:49:14;101622.78;;;6.55;87.09
29461;BME280;16428;47.836;35.106;2024-03-02T08:51:41;101609.53;;;6.86;85.93
29461;BME280;16428;47.836;35.106;2024-03-02T08:54:08;101606.91;;;6.95;85.21
29461;BME280;16428;47.836;35.106;2024-03-02T08:56:35;101602.53;;;6.94;85.47
29461;BME280;16428;47.836;35.106;2024-03-02T08:59:03;101601.44;;;6.97;85.60
29461;BME280;16428;47.836;35.106;2024-03-02T09:01:30;101596.50;;;6.72;86.11
29461;BME280;16428;47.836;35.106;2024-03-02T09:03:57;101586.72;;;6.82;87.36
29461;BME280;16428;47.836;35.106;2024-03-02T09:06:24;101586.97;;;6.99;85.13
29461;BME280;16428;47.836;35.106;2024-03-02T09:08:51;101585.47;;;6.86;85.42
29461;BME280;16428;47.836;35.106;2024-03-02T09:11:19;101580.34;;;7.03;85.40
29461;BME280;16428;47.836;35.106;2024-03-02T09:13:46;101576.81;;;7.24;84.84
29461;BME280;16428;47.836;35.106;2024-03-02T09:16:13;101586.34;;;7.57;83.52
29461;BME280;16428;47.836;35.106;2024-03-02T09:18:40;101580.00;;;7.48;84.07
29461;BME280;16428;47.836;35.106;2024-03-02T09:21:08;101591.75;;;7.36;84.02
29461;BME280;16428;47.836;35.106;2024-03-02T09:23:35;101580.81;;;7.39;83.17
29461;BME280;16428;47.836;35.106;2024-03-02T09:26:02;101582.72;;;7.67;81.98
29461;BME280;16428;47.836;35.106;2024-03-02T09:28:30;101577.22;;;7.59;83.00
29461;BME280;16428;47.836;35.106;2024-03-02T09:30:57;101579.03;;;7.59;83.85
29461;BME280;16428;47.836;35.106;2024-03-02T09:33:26;101581.13;;;7.55;82.73
29461;BME280;16428;47.836;35.106;2024-03-02T09:35:54;101569.78;;;7.72;81.64
29461;BME280;16428;47.836;35.106;2024-03-02T09:38:21;101575.00;;;7.84;80.84
29461;BME280;16428;47.836;35.106;2024-03-02T09:40:49;101572.75;;;7.79;82.32
29461;BME280;16428;47.836;35.106;2024-03-02T09:43:17;101574.47;;;7.90;81.10
29461;BME280;16428;47.836;35.106;2024-03-02T09:45:44;101573.66;;;8.08;79.79
29461;BME280;16428;47.836;35.106;2024-03-02T09:48:12;101570.63;;;7.63;81.09
29461;BME280;16428;47.836;35.106;2024-03-02T09:50:39;101579.53;;;7.93;80.81
29461;BME280;16428;47.836;35.106;2024-03-02T09:53:07;101569.66;;;7.84;81.92
29461;BME280;16428;47.836;35.106;2024-03-02T09:55:35;101563.19;;;7.76;81.02
29461;BME280;16428;47.836;35.106;2024-03-02T09:58:03;101568.81;;;7.83;80.90
29461;BME280;16428;47.836;35.106;2024-03-02T10:00:30;101570.09;;;7.79;80.19
29461;BME280;16428;47.836;35.106;2024-03-02T10:02:58;101560.38;;;7.88;80.50
29461;BME280;16428;47.836;35.106;2024-03-02T10:05:26;101565.03;;;8.05;79.66
29461;BME280;16428;47.836;35.106;2024-03-02T10:08:03;101566.56;;;7.98;80.62
29461;BME280;16428;47.836;35.106;2024-03-02T10:10:38;101568.84;;;8.12;78.99
29461;BME280;16428;47.836;35.106;2024-03-02T10:13:11;101565.47;;;8.29;78.41
29461;BME280;16428;47.836;35.106;2024-03-02T10:15:40;101560.13;;;8.49;77.32
29461;BME280;16428;47.836;35.106;2024-03-02T10:18:12;101560.41;;;8.55;76.33
29461;BME280;16428;47.836;35.106;2024-03-02T10:20:40;101560.69;;;8.42;76.59
29461;BME280;16428;47.836;35.106;2024-03-02T10:23:12;101555.88;;;8.56;76.38
29461;BME280;16428;47.836;35.106;2024-03-02T10:25:40;101549.13;;;8.61;76.80
29461;BME280;16428;47.836;35.106;2024-03-02T10:28:21;101555.19;;;8.54;76.64
29461;BME280;16428;47.836;35.106;2024-03-02T10:30:48;101551.00;;;8.88;75.81
29461;BME280;16428;47.836;35.106;2024-03-02T10:33:19;101552.94;;;9.05;73.84
29461;BME280;16428;47.836;35.106;2024-03-02T10:35:48;101554.13;;;8.93;75.11
29461;BME280;16428;47.836;35.106;2024-03-02T10:38:17;101551.16;;;8.96;73.79
29461;BME280;16428;47.836;35.106;2024-03-02T10:40:47;101548.19;;;8.90;74.37
29461;BME280;16428;47.836;35.106;2024-03-02T10:43:15;101551.25;;;9.04;74.49
29461;BME280;16428;47.836;35.106;2024-03-02T10:45:45;101544.75;;;8.60;74.99
29461;BME280;16428;47.836;35.106;2024-03-02T10:48:15;101543.38;;;8.93;75.72
29461;BME280;16428;47.836;35.106;2024-03-02T10:50:42;101543.38;;;8.93;74.77
29461;BME280;16428;47.836;35.106;2024-03-02T10:53:10;101540.16;;;9.27;73.81
29461;BME280;16428;47.836;35.106;2024-03-02T10:55:37;101533.69;;;9.20;73.69
29461;BME280;16428;47.836;35.106;2024-03-02T10:58:06;101530.94;;;9.02;74.15
29461;BME280;16428;47.836;35.106;2024-03-02T11:00:36;101528.88;;;8.86;75.22
29461;BME280;16428;47.836;35.106;2024-03-02T11:03:06;101530.69;;;8.95;74.58
29461;BME280;16428;47.836;35.106;2024-03-02T11:05:37;101518.09;;;9.05;74.99
29461;BME280;16428;47.836;35.106;2024-03-02T11:08:12;101523.38;;;9.25;73.94
29461;BME280;16428;47.836;35.106;2024-03-02T11:10:58;101527.53;;;9.09;73.62
29461;BME280;16428;47.836;35.106;2024-03-02T11:13:32;101523.09;;;9.28;74.22
29461;BME280;16428;47.836;35.106;2024-03-02T11:16:08;101520.44;;;9.18;73.95
29461;BME280;16428;47.836;35.106;2024-03-02T11:18:39;101520.78;;;9.05;74.92
29461;BME280;16428;47.836;35.106;2024-03-02T11:21:07;101524.56;;;9.40;72.59
29461;BME280;16428;47.836;35.106;2024-03-02T11:23:35;101524.13;;;9.44;71.98
29461;BME280;16428;47.836;35.106;2024-03-02T11:26:18;101528.06;;;9.68;71.54
29461;BME280;16428;47.836;35.106;2024-03-02T11:28:46;101528.59;;;9.71;71.92
29461;BME280;16428;47.836;35.106;2024-03-02T11:31:13;101536.97;;;9.41;72.66
29461;BME280;16428;47.836;35.106;2024-03-02T11:33:40;101526.34;;;9.22;73.80
29461;BME280;16428;47.836;35.106;2024-03-02T11:36:08;101531.03;;;9.47;71.57
29461;BME280;16428;47.836;35.106;2024-03-02T11:38:38;101532.53;;;9.32;71.75
29461;BME280;16428;47.836;35.106;2024-03-02T11:41:07;101534.66;;;9.28;73.61
29461;BME280;16428;47.836;35.106;2024-03-02T11:43:38;101530.00;;;9.21;73.85
29461;BME280;16428;47.836;35.106;2024-03-02T11:46:08;101530.50;;;9.34;71.71
29461;BME280;16428;47.836;35.106;2024-03-02T11:48:36;101523.28;;;9.16;72.78
29461;BME280;16428;47.836;35.106;2024-03-02T11:51:06;101517.66;;;9.10;73.62
29461;BME280;16428;47.836;35.106;2024-03-02T11:53:35;101521.28;;;9.18;72.15
29461;BME280;16428;47.836;35.106;2024-03-02T11:56:06;101521.59;;;9.15;72.37
29461;BME280;16428;47.836;35.106;2024-03-02T11:58:36;101527.81;;;9.06;73.63
29461;BME280;16428;47.836;35.106;2024-03-02T12:01:04;101524.28;;;9.15;73.12
29461;BME280;16428;47.836;35.106;2024-03-02T12:03:32;101530.66;;;9.05;72.81
29461;BME280;16428;47.836;35.106;2024-03-02T12:06:04;101520.72;;;8.78;74.40
29461;BME280;16428;47.836;35.106;2024-03-02T12:08:33;101521.25;;;8.91;73.89
29461;BME280;16428;47.836;35.106;2024-03-02T12:11:01;101522.47;;;8.69;74.87
29461;BME280;16428;47.836;35.106;2024-03-02T12:13:31;101520.03;;;8.86;73.73
29461;BME280;16428;47.836;35.106;2024-03-02T12:15:58;101525.53;;;8.74;73.24
29461;BME280;16428;47.836;35.106;2024-03-02T12:18:26;101516.97;;;8.61;76.63
29461;BME280;16428;47.836;35.106;2024-03-02T12:20:53;101523.78;;;8.36;75.90
29461;BME280;16428;47.836;35.106;2024-03-02T12:23:25;101513.88;;;8.66;75.21
29461;BME280;16428;47.836;35.106;2024-03-02T12:25:52;101523.34;;;8.51;76.18
29461;BME280;16428;47.836;35.106;2024-03-02T12:28:21;101522.09;;;8.55;74.94
29461;BME280;16428;47.836;35.106;2024-03-02T12:30:48;101537.47;;;8.90;73.70
29461;BME280;16428;47.836;35.106;2024-03-02T12:33:17;101522.31;;;8.61;74.08
29461;BME280;16428;47.836;35.106;2024-03-02T12:35:48;101537.03;;;8.48;74.97
29461;BME280;16428;47.836;35.106;2024-03-02T12:38:17;101536.47;;;8.25;75.73
29461;BME280;16428;47.836;35.106;2024-03-02T12:40:48;101540.09;;;7.95;76.99
29461;BME280;16428;47.836;35.106;2024-03-02T12:43:17;101531.63;;;7.70;78.82
29461;BME280;16428;47.836;35.106;2024-03-02T12:45:46;101528.81;;;7.72;79.96
29461;BME280;16428;47.836;35.106;2024-03-02T12:48:15;101533.94;;;7.94;78.18
29461;BME280;16428;47.836;35.106;2024-03-02T12:50:42;101535.19;;;8.00;79.25
29461;BME280;16428;47.836;35.106;2024-03-02T12:53:14;101534.44;;;7.59;79.87
29461;BME280;16428;47.836;35.106;2024-03-02T12:55:46;101545.41;;;7.66;79.79